createdAt,value
2022-11-11T00:01:39.731Z,11.02
2022-11-11T00:04:25.208Z,12.43
2022-11-11T00:07:11.140Z,12.77
2022-11-11T00:09:57.516Z,12.27
2022-11-11T00:12:43.644Z,12.48
2022-11-11T00:15:31.114Z,9.65
2022-11-11T00:18:35.836Z,9.85
2022-11-11T00:21:40.117Z,9.95
2022-11-11T00:24:47.886Z,8.70
2022-11-11T00:27:34.788Z,8.43
2022-11-11T00:30:20.578Z,8.73
2022-11-11T00:33:07.470Z,8.02
2022-11-11T00:35:54.597Z,8.18
2022-11-11T00:38:48.340Z,7.63
2022-11-11T00:41:33.590Z,7.82
2022-11-11T00:44:19.422Z,8.30
2022-11-11T00:47:23.638Z,9.95
2022-11-11T00:50:39.463Z,8.48
2022-11-11T00:53:32.122Z,9.20
2022-11-11T00:56:18.143Z,10.60
2022-11-11T00:59:06.449Z,11.15
2022-11-11T01:01:52.355Z,11.57
2022-11-11T01:04:37.814Z,13.60
2022-11-11T01:07:23.853Z,13.73
2022-11-11T01:10:10.116Z,14.95
2022-11-11T01:13:12.796Z,12.02
2022-11-11T01:16:08.400Z,9.10
2022-11-11T01:18:55.273Z,10.07
2022-11-11T01:21:40.879Z,11.15
2022-11-11T01:24:26.760Z,11.13
2022-11-11T01:27:12.445Z,8.88
2022-11-11T01:29:57.987Z,8.98
2022-11-11T01:32:44.948Z,9.23
2022-11-11T01:35:31.129Z,12.95
2022-11-11T01:38:17.938Z,9.90
2022-11-11T01:41:25.190Z,9.30
2022-11-11T01:44:13.929Z,7.05
2022-11-11T01:47:04.741Z,8.05
2022-11-11T01:49:58.084Z,8.40
2022-11-11T01:52:45.670Z,9.95
2022-11-11T01:55:32.485Z,10.27
2022-11-11T01:58:19.283Z,9.88
2022-11-11T02:01:06.031Z,11.43
2022-11-11T02:04:13.465Z,7.25
2022-11-11T02:07:04.320Z,8.05
2022-11-11T02:09:53.224Z,9.23
2022-11-11T02:12:57.897Z,6.38
2022-11-11T02:15:43.416Z,7.65
2022-11-11T02:18:32.238Z,7.38
2022-11-11T02:21:42.869Z,8.82
2022-11-11T02:24:31.161Z,10.73
2022-11-11T02:27:19.245Z,12.30
2022-11-11T02:30:08.094Z,11.57
2022-11-11T02:32:54.316Z,11.85
2022-11-11T02:35:56.896Z,14.73
2022-11-11T02:38:44.384Z,11.77
2022-11-11T02:41:48.704Z,12.32
2022-11-11T02:44:34.482Z,9.90
2022-11-11T02:47:20.341Z,13.43
2022-11-11T02:50:07.058Z,11.55
2022-11-11T02:52:52.724Z,10.77
2022-11-11T02:55:38.156Z,13.05
2022-11-11T02:58:23.812Z,13.30
2022-11-11T03:01:09.595Z,12.32
2022-11-11T03:03:55.712Z,12.75
2022-11-11T03:06:42.169Z,13.85
2022-11-11T03:09:28.678Z,11.02
2022-11-11T03:12:16.681Z,13.20
2022-11-11T03:15:02.310Z,13.23
2022-11-11T03:17:47.933Z,10.48
2022-11-11T03:20:52.313Z,10.75
2022-11-11T03:23:38.062Z,11.43
2022-11-11T03:26:23.922Z,12.40
2022-11-11T03:29:09.765Z,11.30
2022-11-11T03:31:55.193Z,11.07
2022-11-11T03:34:42.435Z,11.40
2022-11-11T03:37:46.857Z,10.25
2022-11-11T03:40:32.337Z,12.48
2022-11-11T03:43:19.686Z,14.15
2022-11-11T03:46:08.775Z,13.32
2022-11-11T03:48:55.817Z,11.48
2022-11-11T03:51:41.434Z,15.32
2022-11-11T03:54:27.135Z,14.13
2022-11-11T03:57:30.804Z,14.50
2022-11-11T04:00:22.214Z,16.42
2022-11-11T04:03:36.392Z,9.52
2022-11-11T04:06:41.813Z,10.07
2022-11-11T04:09:45.875Z,13.88
2022-11-11T04:12:53.692Z,11.43
2022-11-11T04:15:58.169Z,11.30
2022-11-11T04:19:02.489Z,11.32
2022-11-11T04:21:47.855Z,9.77
2022-11-11T04:24:52.419Z,8.25
2022-11-11T04:27:37.752Z,12.50
2022-11-11T04:30:23.936Z,12.30
2022-11-11T04:33:10.556Z,11.85
2022-11-11T04:35:56.644Z,11.80
2022-11-11T04:39:00.626Z,13.27
2022-11-11T04:42:07.216Z,9.18
2022-11-11T04:45:10.532Z,11.30
2022-11-11T04:48:04.215Z,12.60
2022-11-11T04:50:49.870Z,9.50
2022-11-11T04:53:35.049Z,12.07
2022-11-11T04:56:38.771Z,13.85
2022-11-11T04:59:24.347Z,10.38
2022-11-11T05:02:28.253Z,11.50
2022-11-11T05:05:13.931Z,12.75
2022-11-11T05:08:18.007Z,13.20
2022-11-11T05:11:03.372Z,12.85
2022-11-11T05:14:07.808Z,10.45
2022-11-11T05:17:17.062Z,12.93
2022-11-11T05:20:21.009Z,12.13
2022-11-11T05:23:07.655Z,12.10
2022-11-11T05:25:53.620Z,11.77
2022-11-11T05:28:39.147Z,10.80
2022-11-11T05:31:24.994Z,12.23
2022-11-11T05:34:10.280Z,9.13
2022-11-11T05:36:56.556Z,11.68
2022-11-11T05:39:43.797Z,11.27
2022-11-11T05:42:29.159Z,12.40
2022-11-11T05:45:14.733Z,9.65
2022-11-11T05:48:03.854Z,9.18
2022-11-11T05:50:49.900Z,8.35
2022-11-11T05:53:35.934Z,8.32
2022-11-11T05:56:21.502Z,7.80
2022-11-11T05:59:08.226Z,7.07
2022-11-11T06:01:54.449Z,7.60
2022-11-11T06:04:41.211Z,6.57
2022-11-11T06:07:26.713Z,7.07
2022-11-11T06:10:30.672Z,7.72
2022-11-11T06:13:16.052Z,7.50
2022-11-11T06:16:02.174Z,7.00
2022-11-11T06:18:48.049Z,6.50
2022-11-11T06:21:53.356Z,6.88
2022-11-11T06:24:39.266Z,7.70
2022-11-11T06:27:24.724Z,6.68
2022-11-11T06:30:44.290Z,7.85
2022-11-11T06:33:18.420Z,6.60
2022-11-11T06:36:06.248Z,7.57
2022-11-11T06:38:51.621Z,8.10
2022-11-11T06:41:36.995Z,6.88
2022-11-11T06:44:22.275Z,6.85
2022-11-11T06:47:07.496Z,7.30
2022-11-11T06:49:53.021Z,7.43
2022-11-11T06:52:39.503Z,8.23
2022-11-11T06:55:25.312Z,7.07
2022-11-11T06:58:21.642Z,7.35
2022-11-11T07:01:09.452Z,7.88
2022-11-11T07:03:55.233Z,8.57
2022-11-11T07:06:40.925Z,10.55
2022-11-11T07:09:28.089Z,10.32
2022-11-11T07:12:13.350Z,9.52
2022-11-11T07:14:58.909Z,10.20
2022-11-11T07:17:44.549Z,8.57
2022-11-11T07:20:31.813Z,8.52
2022-11-11T07:23:18.198Z,10.13
2022-11-11T07:26:04.101Z,9.27
2022-11-11T07:28:51.554Z,9.32
2022-11-11T07:31:37.380Z,9.77
2022-11-11T07:34:23.435Z,10.65
2022-11-11T07:37:08.864Z,10.32
2022-11-11T07:39:55.065Z,10.32
2022-11-11T07:42:41.982Z,10.02
2022-11-11T07:45:28.006Z,9.85
2022-11-11T07:48:13.426Z,12.65
2022-11-11T07:51:00.819Z,18.92
2022-11-11T07:53:46.154Z,15.27
2022-11-11T07:56:32.011Z,13.07
2022-11-11T07:59:17.813Z,12.63
2022-11-11T08:02:03.668Z,11.40
2022-11-11T08:04:55.852Z,11.70
2022-11-11T08:07:42.849Z,14.80
2022-11-11T08:10:28.206Z,11.43
2022-11-11T08:13:33.683Z,9.82
2022-11-11T08:16:19.311Z,12.10
2022-11-11T08:19:05.654Z,13.38
2022-11-11T08:21:52.665Z,15.18
2022-11-11T08:27:45.250Z,12.27
2022-11-11T08:30:32.509Z,18.92
2022-11-11T08:33:43.671Z,10.10
2022-11-11T08:36:25.644Z,14.43
2022-11-11T08:39:12.234Z,15.32
2022-11-11T08:41:57.361Z,19.88
2022-11-11T08:44:43.803Z,20.88
2022-11-11T08:47:30.740Z,12.07
2022-11-11T08:50:16.613Z,15.07
2022-11-11T08:53:02.528Z,10.32
2022-11-11T08:55:48.593Z,18.27
2022-11-11T08:58:35.887Z,16.88
2022-11-11T09:01:21.623Z,15.95
2022-11-11T09:04:30.188Z,11.52
2022-11-11T09:07:13.332Z,16.50
2022-11-11T09:09:59.293Z,11.48
2022-11-11T09:12:44.870Z,11.60
2022-11-11T09:15:30.246Z,10.55
2022-11-11T09:18:15.700Z,11.25
2022-11-11T09:21:01.590Z,15.15
2022-11-11T09:23:47.353Z,8.32
2022-11-11T09:26:32.890Z,9.27
2022-11-11T09:29:19.284Z,8.30
2022-11-11T09:32:05.479Z,8.07
2022-11-11T09:34:51.173Z,9.32
2022-11-11T09:37:36.678Z,9.48
2022-11-11T09:40:25.810Z,9.43
2022-11-11T09:43:36.116Z,9.82
2022-11-11T09:46:27.765Z,9.60
2022-11-11T09:49:52.084Z,9.15
2022-11-11T09:52:43.707Z,10.57
2022-11-11T09:55:28.980Z,12.02
2022-11-11T09:58:23.084Z,15.55
2022-11-11T10:01:26.334Z,10.35
2022-11-11T10:04:41.016Z,11.23
2022-11-11T10:07:55.848Z,9.65
2022-11-11T10:10:48.489Z,9.65
2022-11-11T10:16:54.405Z,8.60
2022-11-11T10:20:01.854Z,11.82
2022-11-11T10:22:51.952Z,9.82
2022-11-11T10:25:43.006Z,10.23
2022-11-11T10:28:33.330Z,8.70
2022-11-11T10:31:23.014Z,9.45
2022-11-11T10:34:13.771Z,9.77
2022-11-11T10:37:00.019Z,10.63
2022-11-11T10:40:06.711Z,10.20
2022-11-11T10:42:52.348Z,12.80
2022-11-11T10:45:51.027Z,12.60
2022-11-11T10:48:43.481Z,10.30
2022-11-11T10:51:35.909Z,10.10
2022-11-11T10:54:31.999Z,8.40
2022-11-11T10:57:55.441Z,10.48
2022-11-11T11:00:48.004Z,11.80
2022-11-11T11:03:53.782Z,10.95
2022-11-11T11:06:45.449Z,12.50
2022-11-11T11:09:38.620Z,13.18
2022-11-11T11:12:43.113Z,13.15
2022-11-11T11:15:31.326Z,11.32
2022-11-11T11:18:19.174Z,10.88
2022-11-11T11:21:08.639Z,10.48
2022-11-11T11:23:55.167Z,14.73
2022-11-11T11:26:49.059Z,13.50
2022-11-11T11:29:39.896Z,11.65
2022-11-11T11:32:30.944Z,9.65
2022-11-11T11:35:32.099Z,11.98
2022-11-11T11:38:19.138Z,9.82
2022-11-11T11:41:04.636Z,10.23
2022-11-11T11:43:51.614Z,10.32
2022-11-11T11:46:39.243Z,10.52
2022-11-11T11:49:49.396Z,11.05
2022-11-11T11:52:48.841Z,10.98
2022-11-11T11:55:43.303Z,11.13
2022-11-11T11:59:11.871Z,10.73
2022-11-11T12:02:17.190Z,10.88
2022-11-11T12:05:19.888Z,10.35
2022-11-11T12:11:43.919Z,11.05
2022-11-11T12:14:50.971Z,11.15
2022-11-11T12:17:41.412Z,10.75
2022-11-11T12:20:44.668Z,11.50
2022-11-11T12:23:57.955Z,11.63
2022-11-11T12:26:51.028Z,10.93
2022-11-11T12:29:42.066Z,11.52
2022-11-11T12:32:48.509Z,10.00
2022-11-11T12:36:14.287Z,10.57
2022-11-11T12:39:14.797Z,11.55
2022-11-11T12:42:22.935Z,11.45
2022-11-11T12:45:24.353Z,10.52
2022-11-11T12:48:44.681Z,10.27
2022-11-11T12:51:58.040Z,10.40
2022-11-11T12:54:49.535Z,9.00
2022-11-11T12:57:49.656Z,8.63
2022-11-11T13:00:45.809Z,9.77
2022-11-11T13:03:52.113Z,9.05
2022-11-11T13:06:58.095Z,9.93
2022-11-11T13:19:29.620Z,8.48
